createdAt,value
2018-03-12T00:01:21.672Z,93362.95
2018-03-12T00:03:50.714Z,93361.63
2018-03-12T00:06:19.771Z,93362.12
2018-03-12T00:08:52.262Z,93359.72
2018-03-12T00:11:21.300Z,93358.12
2018-03-12T00:13:50.354Z,93359.63
2018-03-12T00:16:19.400Z,93365.92
2018-03-12T00:18:51.435Z,93365.85
2018-03-12T00:21:20.553Z,93361.54
2018-03-12T00:23:49.623Z,93360.55
2018-03-12T00:26:18.678Z,93361.74
2018-03-12T00:28:47.774Z,93361.72
2018-03-12T00:31:16.814Z,93362.75
2018-03-12T00:33:45.940Z,93363.55
2018-03-12T00:36:15.046Z,93367.19
2018-03-12T00:38:44.083Z,93370.91
2018-03-12T00:41:13.202Z,93368.94
2018-03-12T00:43:42.253Z,93369.80
2018-03-12T00:46:11.372Z,93366.09
2018-03-12T00:48:40.404Z,93368.17
2018-03-12T00:51:10.354Z,93370.20
2018-03-12T00:53:39.412Z,93366.10
2018-03-12T00:56:08.516Z,93366.76
2018-03-12T00:58:37.602Z,93372.16
2018-03-12T01:01:06.733Z,93377.91
2018-03-12T01:03:35.800Z,93380.36
2018-03-12T01:06:04.865Z,93373.48
2018-03-12T01:08:33.914Z,93373.45
2018-03-12T01:11:02.960Z,93372.14
2018-03-12T01:13:32.077Z,93365.51
2018-03-12T01:16:01.132Z,93371.95
2018-03-12T01:18:30.170Z,93367.94
2018-03-12T01:20:59.231Z,93367.29
2018-03-12T01:23:28.518Z,93365.13
2018-03-12T01:25:57.644Z,93363.95
2018-03-12T01:28:26.716Z,93372.01
2018-03-12T01:30:55.744Z,93367.84
2018-03-12T01:33:24.902Z,93368.63
2018-03-12T01:35:54.058Z,93365.48
2018-03-12T01:38:23.086Z,93366.36
2018-03-12T01:40:52.201Z,93371.22
2018-03-12T01:43:24.697Z,93368.72
2018-03-12T01:45:55.758Z,93375.47
2018-03-12T01:48:24.865Z,93369.24
2018-03-12T01:50:53.913Z,93380.03
2018-03-12T01:53:22.973Z,93382.69
2018-03-12T01:55:52.007Z,93380.21
2018-03-12T01:58:21.065Z,93383.95
2018-03-12T02:00:51.023Z,93380.91
2018-03-12T02:03:20.087Z,93383.03
2018-03-12T02:05:49.123Z,93381.53
2018-03-12T02:08:18.172Z,93377.50
2018-03-12T02:10:47.220Z,93382.44
2018-03-12T02:13:16.267Z,93382.75
2018-03-12T02:15:45.311Z,93388.52
2018-03-12T02:18:14.363Z,93380.97
2018-03-12T02:20:43.416Z,93383.39
2018-03-12T02:23:12.018Z,93379.64
2018-03-12T02:25:40.534Z,93376.38
2018-03-12T02:28:09.040Z,93382.08
2018-03-12T02:30:37.574Z,93381.00
2018-03-12T02:33:06.085Z,93393.77
2018-03-12T02:35:34.606Z,93394.88
2018-03-12T02:38:03.144Z,93394.62
2018-03-12T02:40:31.658Z,93399.72
2018-03-12T02:43:00.185Z,93404.31
2018-03-12T02:45:28.718Z,93406.83
2018-03-12T02:47:57.240Z,93409.80
2018-03-12T02:50:25.772Z,93404.27
2018-03-12T02:52:54.313Z,93409.81
2018-03-12T02:55:22.833Z,93411.80
2018-03-12T02:57:51.354Z,93410.66
2018-03-12T03:00:19.869Z,93405.94
2018-03-12T03:02:48.392Z,93407.75
2018-03-12T03:05:16.918Z,93405.06
2018-03-12T03:07:45.446Z,93403.70
2018-03-12T03:10:13.968Z,93409.14
2018-03-12T03:12:42.499Z,93404.76
2018-03-12T03:15:11.013Z,93403.20
2018-03-12T03:17:39.534Z,93396.33
2018-03-12T03:20:08.066Z,93406.58
2018-03-12T03:22:36.589Z,93417.76
2018-03-12T03:25:05.116Z,93418.72
2018-03-12T03:27:33.638Z,93428.08
2018-03-12T03:30:02.158Z,93427.73
2018-03-12T03:32:30.698Z,93422.97
2018-03-12T03:34:59.314Z,93431.20
2018-03-12T03:37:27.835Z,93429.10
2018-03-12T03:39:56.387Z,93430.62
2018-03-12T03:42:24.905Z,93427.84
2018-03-12T03:44:53.435Z,93427.69
2018-03-12T03:47:21.963Z,93438.45
2018-03-12T03:49:50.489Z,93441.88
2018-03-12T03:52:19.012Z,93444.50
2018-03-12T03:54:47.529Z,93453.12
2018-03-12T03:57:16.118Z,93460.83
2018-03-12T03:59:44.724Z,93463.35
2018-03-12T04:02:13.263Z,93468.90
2018-03-12T04:04:41.807Z,93473.47
2018-03-12T04:07:10.330Z,93474.13
2018-03-12T04:09:38.842Z,93474.02
2018-03-12T04:12:07.374Z,93474.34
2018-03-12T04:14:35.922Z,93474.63
2018-03-12T04:17:04.493Z,93480.22
2018-03-12T04:19:33.001Z,93476.83
2018-03-12T04:22:01.518Z,93479.08
2018-03-12T04:24:30.074Z,93477.55
2018-03-12T04:26:58.597Z,93477.42
2018-03-12T04:29:27.126Z,93479.09
2018-03-12T04:31:55.648Z,93478.05
2018-03-12T04:34:24.159Z,93479.89
2018-03-12T04:36:52.690Z,93479.06
2018-03-12T04:39:21.206Z,93476.27
2018-03-12T04:41:49.739Z,93478.23
2018-03-12T04:44:18.268Z,93474.47
2018-03-12T04:46:46.804Z,93474.15
2018-03-12T04:49:15.322Z,93473.39
2018-03-12T04:51:43.842Z,93469.87
2018-03-12T04:54:12.381Z,93471.71
2018-03-12T04:56:40.901Z,93476.21
2018-03-12T04:59:09.462Z,93472.80
2018-03-12T05:01:37.958Z,93474.30
2018-03-12T05:04:06.492Z,93470.34
2018-03-12T05:06:35.014Z,93466.33
2018-03-12T05:09:03.539Z,93468.47
2018-03-12T05:11:32.064Z,93467.09
2018-03-12T05:14:00.590Z,93466.81
2018-03-12T05:16:29.116Z,93470.45
2018-03-12T05:18:57.653Z,93471.03
2018-03-12T05:21:26.171Z,93477.67
2018-03-12T05:23:54.705Z,93464.89
2018-03-12T05:26:23.243Z,93467.63
2018-03-12T05:28:51.769Z,93464.48
2018-03-12T05:31:20.291Z,93462.66
2018-03-12T05:33:48.813Z,93463.82
2018-03-12T05:36:17.341Z,93466.42
2018-03-12T05:38:45.855Z,93460.28
2018-03-12T05:41:14.382Z,93460.61
2018-03-12T05:43:42.915Z,93458.80
2018-03-12T05:46:11.441Z,93458.95
2018-03-12T05:48:39.962Z,93457.67
2018-03-12T05:51:08.554Z,93455.27
2018-03-12T05:53:37.079Z,93459.99
2018-03-12T05:56:05.607Z,93465.09
2018-03-12T05:58:34.143Z,93464.25
2018-03-12T06:01:02.695Z,93465.23
2018-03-12T06:03:31.231Z,93463.50
2018-03-12T06:05:59.743Z,93463.00
2018-03-12T06:08:28.265Z,93464.14
2018-03-12T06:10:56.839Z,93466.03
2018-03-12T06:13:25.364Z,93461.94
2018-03-12T06:15:55.813Z,93472.92
2018-03-12T06:18:24.338Z,93473.88
2018-03-12T06:20:52.855Z,93475.90
2018-03-12T06:23:22.294Z,93470.53
2018-03-12T06:25:50.814Z,93470.14
2018-03-12T06:28:19.358Z,93472.23
2018-03-12T06:30:47.870Z,93477.19
2018-03-12T06:33:19.652Z,93481.55
2018-03-12T06:35:48.189Z,93480.43
2018-03-12T06:38:16.756Z,93487.53
2018-03-12T06:40:45.280Z,93480.33
2018-03-12T06:43:13.795Z,93488.08
2018-03-12T06:45:42.328Z,93486.31
2018-03-12T06:48:10.850Z,93493.22
2018-03-12T06:50:39.380Z,93491.24
2018-03-12T06:53:07.888Z,93490.00
2018-03-12T06:55:36.426Z,93496.23
2018-03-12T06:58:04.966Z,93497.69
2018-03-12T07:00:33.980Z,93501.53
2018-03-12T07:03:02.519Z,93503.07
2018-03-12T07:05:31.039Z,93512.49
2018-03-12T07:07:59.557Z,93513.61
2018-03-12T07:10:28.070Z,93515.13
2018-03-12T07:12:56.597Z,93519.34
2018-03-12T07:15:28.718Z,93521.20
2018-03-12T07:17:58.542Z,93527.00
2018-03-12T07:20:27.069Z,93526.98
2018-03-12T07:22:55.587Z,93530.30
2018-03-12T07:25:24.169Z,93531.89
2018-03-12T07:27:52.659Z,93531.80
2018-03-12T07:30:21.189Z,93534.00
2018-03-12T07:32:49.851Z,93535.36
2018-03-12T07:35:18.346Z,93536.17
2018-03-12T07:37:46.873Z,93542.81
2018-03-12T07:40:15.396Z,93545.53
2018-03-12T07:42:44.015Z,93546.38
2018-03-12T07:45:12.485Z,93557.20
2018-03-12T07:47:41.086Z,93554.01
2018-03-12T07:50:09.614Z,93551.41
2018-03-12T07:52:38.149Z,93550.42
2018-03-12T07:55:06.671Z,93552.67
2018-03-12T07:57:35.185Z,93554.22
2018-03-12T08:00:03.736Z,93560.48
2018-03-12T08:02:32.248Z,93564.11
2018-03-12T08:05:00.796Z,93564.01
2018-03-12T08:07:29.302Z,93566.14
2018-03-12T08:09:57.832Z,93567.17
2018-03-12T08:12:26.330Z,93561.59
2018-03-12T08:14:55.741Z,93564.53
2018-03-12T08:17:24.271Z,93565.83
2018-03-12T08:19:52.785Z,93568.03
2018-03-12T08:22:21.299Z,93579.45
2018-03-12T08:24:49.823Z,93575.32
2018-03-12T08:27:18.366Z,93574.95
2018-03-12T08:29:46.887Z,93577.86
2018-03-12T08:32:15.402Z,93573.41
2018-03-12T08:34:43.943Z,93578.66
2018-03-12T08:37:12.457Z,93576.89
2018-03-12T08:39:40.978Z,93590.24
2018-03-12T08:42:09.501Z,93579.53
2018-03-12T08:44:38.092Z,93581.48
2018-03-12T08:47:10.234Z,93580.42
2018-03-12T08:49:41.951Z,93589.66
2018-03-12T08:52:10.482Z,93587.23
2018-03-12T08:54:39.011Z,93584.92
2018-03-12T08:57:07.597Z,93582.44
2018-03-12T08:59:36.134Z,93596.75
2018-03-12T09:02:04.651Z,93600.41
2018-03-12T09:04:33.174Z,93592.80
2018-03-12T09:07:01.698Z,93596.98
2018-03-12T09:09:30.223Z,93584.89
2018-03-12T09:12:07.097Z,93595.35
2018-03-12T09:14:58.182Z,93591.28
2018-03-12T09:18:02.898Z,93596.67
2018-03-12T09:21:03.744Z,93592.94
2018-03-12T09:23:48.173Z,93598.20
2018-03-12T09:26:20.368Z,93614.95
2018-03-12T09:28:52.687Z,93603.41
2018-03-12T09:31:21.210Z,93605.55
2018-03-12T09:33:49.752Z,93617.80
2018-03-12T09:36:18.284Z,93616.39
2018-03-12T09:38:46.819Z,93610.44
2018-03-12T09:41:15.357Z,93634.69
2018-03-12T09:43:43.941Z,93624.81
2018-03-12T09:46:12.481Z,93620.20
2018-03-12T09:48:40.997Z,93625.66
2018-03-12T09:51:10.445Z,93624.69
2018-03-12T09:53:39.004Z,93632.62
2018-03-12T09:56:07.555Z,93623.91
2018-03-12T09:58:36.087Z,93621.75
2018-03-12T10:01:06.535Z,93631.60
2018-03-12T10:03:35.063Z,93648.82
2018-03-12T10:06:15.824Z,93630.80
2018-03-12T10:08:45.050Z,93643.91
2018-03-12T10:11:13.585Z,93645.08
2018-03-12T10:13:42.142Z,93653.86
2018-03-12T10:16:10.662Z,93651.02
2018-03-12T10:18:39.199Z,93682.11
2018-03-12T10:21:07.809Z,93660.37
2018-03-12T10:23:37.131Z,93669.24
2018-03-12T10:26:05.698Z,93678.19
2018-03-12T10:28:34.494Z,93671.09
2018-03-12T10:31:03.831Z,93687.08
2018-03-12T10:33:32.372Z,93692.88
2018-03-12T10:36:02.158Z,93704.03
2018-03-12T10:38:30.671Z,93688.03
2018-03-12T10:40:59.211Z,93697.83
2018-03-12T10:43:28.702Z,93702.62
2018-03-12T10:45:57.288Z,93701.44
2018-03-12T10:48:25.838Z,93703.24
2018-03-12T10:50:54.378Z,93729.69
2018-03-12T10:53:22.885Z,93715.27
2018-03-12T10:55:51.426Z,93717.42
2018-03-12T10:58:19.968Z,93721.64
2018-03-12T11:00:55.257Z,93724.01
2018-03-12T11:03:29.318Z,93720.83
2018-03-12T11:06:05.338Z,93722.28
2018-03-12T11:08:38.109Z,93717.34
2018-03-12T11:11:06.661Z,93712.34
2018-03-12T11:13:35.189Z,93728.31
2018-03-12T11:16:03.713Z,93719.39
2018-03-12T11:18:33.689Z,93727.19
2018-03-12T11:21:02.198Z,93736.65
2018-03-12T11:23:30.724Z,93734.19
2018-03-12T11:26:00.437Z,93731.45
2018-03-12T11:28:30.882Z,93728.33
2018-03-12T11:30:59.417Z,93731.02
2018-03-12T11:33:27.938Z,93736.81
2018-03-12T11:35:56.473Z,93728.59
2018-03-12T11:38:25.695Z,93721.42
2018-03-12T11:40:54.257Z,93738.16
2018-03-12T11:43:22.714Z,93721.99
2018-03-12T11:45:51.244Z,93734.36
2018-03-12T11:48:19.778Z,93725.14
2018-03-12T11:50:49.241Z,93725.39
2018-03-12T11:53:17.760Z,93727.39
2018-03-12T11:55:48.534Z,93719.61
2018-03-12T11:58:17.068Z,93727.70
2018-03-12T12:00:48.726Z,93725.38
2018-03-12T12:03:18.938Z,93714.63
2018-03-12T12:05:47.480Z,93720.59
2018-03-12T12:08:19.000Z,93723.20
2018-03-12T12:10:48.904Z,93715.29
2018-03-12T12:13:17.418Z,93721.17
2018-03-12T12:15:47.242Z,93715.45
2018-03-12T12:18:15.761Z,93740.22
2018-03-12T12:20:45.781Z,93720.58
2018-03-12T12:23:15.188Z,93725.70
2018-03-12T12:25:43.711Z,93731.80
2018-03-12T12:28:16.041Z,93723.77
2018-03-12T12:30:44.530Z,93719.60
2018-03-12T12:33:13.051Z,93713.51
2018-03-12T12:35:42.252Z,93730.28
2018-03-12T12:38:10.749Z,93703.55
2018-03-12T12:40:40.188Z,93701.11
2018-03-12T12:43:09.362Z,93701.41
2018-03-12T12:45:40.387Z,93687.20
2018-03-12T12:48:08.901Z,93695.31
2018-03-12T12:50:37.454Z,93699.72
2018-03-12T12:53:06.180Z,93702.08
2018-03-12T12:55:34.695Z,93691.75
2018-03-12T12:58:04.039Z,93686.88
2018-03-12T13:00:32.574Z,93683.93
2018-03-12T13:03:01.093Z,93693.64
2018-03-12T13:05:29.647Z,93696.53
2018-03-12T13:07:58.168Z,93690.61
2018-03-12T13:10:27.583Z,93697.83
2018-03-12T13:12:57.594Z,93697.77
2018-03-12T13:15:26.133Z,93702.94
2018-03-12T13:17:55.092Z,93681.86
2018-03-12T13:20:23.617Z,93717.44
2018-03-12T13:22:52.149Z,93709.08
2018-03-12T13:25:20.705Z,93709.36
2018-03-12T13:27:52.646Z,93709.73
2018-03-12T13:30:21.164Z,93710.44
2018-03-12T13:32:49.699Z,93710.89
2018-03-12T13:35:18.238Z,93713.89
2018-03-12T13:37:46.774Z,93714.07
2018-03-12T13:40:15.299Z,93738.97
2018-03-12T13:42:46.157Z,93724.84
2018-03-12T13:45:14.676Z,93717.16
2018-03-12T13:47:43.217Z,93717.38
2018-03-12T13:50:11.739Z,93726.67
2018-03-12T13:52:40.278Z,93731.80
2018-03-12T13:55:08.838Z,93722.13
2018-03-12T13:57:37.402Z,93727.91
2018-03-12T14:00:05.957Z,93721.16
2018-03-12T14:02:34.667Z,93725.20
2018-03-12T14:05:06.179Z,93723.57
2018-03-12T14:07:34.710Z,93725.23
2018-03-12T14:10:03.993Z,93727.02
2018-03-12T14:12:33.511Z,93732.71
2018-03-12T14:15:02.051Z,93730.23
2018-03-12T14:17:30.740Z,93727.16
2018-03-12T14:19:59.251Z,93724.98
2018-03-12T14:22:28.533Z,93722.55
2018-03-12T14:24:57.069Z,93726.88
2018-03-12T14:27:25.781Z,93732.96
2018-03-12T14:29:54.290Z,93724.98
2018-03-12T14:32:22.814Z,93729.84
2018-03-12T14:34:51.346Z,93730.36
2018-03-12T14:37:20.797Z,93725.86
2018-03-12T14:39:49.339Z,93732.80
2018-03-12T14:42:18.920Z,93728.31
2018-03-12T14:44:48.667Z,93726.91
2018-03-12T14:47:17.201Z,93737.25
2018-03-12T14:49:45.752Z,93742.95
2018-03-12T14:52:14.286Z,93742.14
2018-03-12T14:54:46.559Z,93743.17
2018-03-12T14:57:19.443Z,93745.61
2018-03-12T14:59:51.574Z,93744.92
2018-03-12T15:02:22.916Z,93739.95
2018-03-12T15:04:55.366Z,93738.16
2018-03-12T15:07:27.152Z,93757.86
2018-03-12T15:09:57.971Z,93751.83
2018-03-12T15:12:26.495Z,93745.48
2018-03-12T15:15:02.080Z,93754.44
2018-03-12T15:17:30.609Z,93749.60
2018-03-12T15:19:59.133Z,93751.20
2018-03-12T15:22:27.678Z,93757.95
2018-03-12T15:24:56.218Z,93751.66
2018-03-12T15:27:24.756Z,93747.50
2018-03-12T15:29:53.285Z,93752.83
2018-03-12T15:32:21.896Z,93758.17
2018-03-12T15:34:50.430Z,93764.09
2018-03-12T15:37:18.966Z,93763.53
2018-03-12T15:39:47.482Z,93757.15
2018-03-12T15:42:16.918Z,93760.52
2018-03-12T15:44:48.519Z,93770.05
2018-03-12T15:47:17.049Z,93776.63
2018-03-12T15:49:45.580Z,93778.91
2018-03-12T15:52:14.103Z,93784.71
2018-03-12T15:54:42.702Z,93793.59
2018-03-12T15:57:11.394Z,93783.47
2018-03-12T15:59:40.589Z,93787.34
2018-03-12T16:02:09.161Z,93788.97
2018-03-12T16:04:38.605Z,93789.05
2018-03-12T16:07:07.123Z,93795.59
2018-03-12T16:09:35.664Z,93793.98
2018-03-12T16:12:04.164Z,93795.06
2018-03-12T16:14:32.702Z,93803.33
2018-03-12T16:17:01.240Z,93806.48
2018-03-12T16:19:29.770Z,93807.31
2018-03-12T16:21:58.316Z,93806.64
2018-03-12T16:24:26.837Z,93807.73
2018-03-12T16:26:55.367Z,93811.63
2018-03-12T16:29:24.279Z,93807.31
2018-03-12T16:31:52.801Z,93805.33
2018-03-12T16:34:21.323Z,93808.63
2018-03-12T16:36:49.842Z,93810.59
2018-03-12T16:39:18.377Z,93820.90
2018-03-12T16:41:46.906Z,93822.65
2018-03-12T16:44:15.419Z,93822.48
2018-03-12T16:46:43.938Z,93827.34
2018-03-12T16:49:12.621Z,93838.28
2018-03-12T16:51:41.134Z,93842.96
2018-03-12T16:54:09.706Z,93843.14
2018-03-12T16:56:38.207Z,93845.34
2018-03-12T16:59:06.741Z,93845.30
2018-03-12T17:01:35.278Z,93845.17
2018-03-12T17:04:03.878Z,93855.46
2018-03-12T17:06:32.394Z,93851.88
2018-03-12T17:09:00.922Z,93859.55
2018-03-12T17:11:29.449Z,93862.61
2018-03-12T17:13:57.970Z,93858.73
2018-03-12T17:16:26.486Z,93870.23
2018-03-12T17:18:55.043Z,93869.42
2018-03-12T17:21:24.099Z,93876.09
2018-03-12T17:23:52.853Z,93882.77
2018-03-12T17:26:21.419Z,93879.70
2018-03-12T17:28:49.953Z,93886.91
2018-03-12T17:31:20.899Z,93889.35
2018-03-12T17:33:49.422Z,93886.63
2018-03-12T17:36:17.926Z,93889.25
2018-03-12T17:38:46.457Z,93892.12
2018-03-12T17:41:15.197Z,93897.72
2018-03-12T17:43:43.694Z,93894.02
2018-03-12T17:46:12.285Z,93898.40
2018-03-12T17:48:40.744Z,93906.56
2018-03-12T17:51:09.280Z,93911.81
2018-03-12T17:53:38.220Z,93917.92
2018-03-12T17:56:06.764Z,93924.08
2018-03-12T17:58:36.271Z,93926.50
2018-03-12T18:01:05.908Z,93931.38
2018-03-12T18:03:34.503Z,93937.23
2018-03-12T18:06:19.616Z,93941.89
2018-03-12T18:08:48.918Z,93939.78
2018-03-12T18:11:17.458Z,93947.55
2018-03-12T18:13:51.229Z,93948.90
2018-03-12T18:16:19.771Z,93953.15
2018-03-12T18:18:48.319Z,93956.48
2018-03-12T18:21:16.850Z,93959.30
2018-03-12T18:23:47.911Z,93967.38
2018-03-12T18:26:16.612Z,93968.57
2018-03-12T18:28:45.166Z,93974.77
2018-03-12T18:31:13.662Z,93972.28
2018-03-12T18:33:42.626Z,93977.91
2018-03-12T18:36:11.166Z,93975.41
2018-03-12T18:38:39.695Z,93977.39
2018-03-12T18:41:08.205Z,93977.25
2018-03-12T18:43:36.733Z,93980.24
2018-03-12T18:46:05.245Z,93981.64
2018-03-12T18:48:33.782Z,93981.96
2018-03-12T18:51:03.200Z,93980.17
2018-03-12T18:53:31.710Z,93985.61
2018-03-12T18:56:00.320Z,93983.00
2018-03-12T18:58:28.841Z,93987.44
2018-03-12T19:00:57.401Z,93987.79
2018-03-12T19:03:25.928Z,93996.08
2018-03-12T19:05:54.441Z,93997.67
2018-03-12T19:08:22.966Z,93996.31
2018-03-12T19:10:51.483Z,93996.60
2018-03-12T19:13:20.033Z,93997.99
2018-03-12T19:15:48.552Z,94010.30
2018-03-12T19:18:17.106Z,94011.63
2018-03-12T19:20:45.665Z,94005.44
2018-03-12T19:23:14.185Z,94005.36
2018-03-12T19:25:45.770Z,94012.73
2018-03-12T19:28:14.309Z,94012.48
2018-03-12T19:30:43.127Z,94013.89
2018-03-12T19:33:11.686Z,94010.48
2018-03-12T19:35:40.210Z,94007.03
2018-03-12T19:38:08.734Z,94009.37
2018-03-12T19:40:38.637Z,94017.08
2018-03-12T19:43:07.154Z,94024.50
2018-03-12T19:45:36.329Z,94031.66
2018-03-12T19:48:05.127Z,94027.81
2018-03-12T19:50:33.652Z,94031.28
2018-03-12T19:53:02.180Z,94027.02
2018-03-12T19:55:30.697Z,94035.60
2018-03-12T19:58:00.126Z,94040.20
2018-03-12T20:00:28.661Z,94039.58
2018-03-12T20:02:57.213Z,94033.63
2018-03-12T20:05:28.694Z,94045.38
2018-03-12T20:07:57.378Z,94043.91
2018-03-12T20:10:25.907Z,94060.38
2018-03-12T20:12:57.795Z,94051.25
2018-03-12T20:15:34.662Z,94056.37
2018-03-12T20:18:03.859Z,94058.20
2018-03-12T20:20:32.482Z,94063.91
2018-03-12T20:23:04.009Z,94069.49
2018-03-12T20:25:32.539Z,94074.16
2018-03-12T20:28:01.238Z,94074.94
2018-03-12T20:30:29.754Z,94073.47
2018-03-12T20:32:58.280Z,94071.48
2018-03-12T20:35:26.806Z,94068.44
2018-03-12T20:37:55.338Z,94071.67
2018-03-12T20:40:24.078Z,94072.52
2018-03-12T20:42:52.676Z,94071.59
2018-03-12T20:45:21.226Z,94079.06
2018-03-12T20:47:49.793Z,94072.13
2018-03-12T20:50:22.029Z,94075.38
2018-03-12T20:52:50.563Z,94078.47
2018-03-12T20:55:19.147Z,94075.16
2018-03-12T20:57:47.658Z,94081.84
2018-03-12T21:00:16.223Z,94075.00
2018-03-12T21:02:44.822Z,94082.16
2018-03-12T21:05:13.364Z,94079.70
2018-03-12T21:07:42.243Z,94082.35
2018-03-12T21:10:10.774Z,94080.46
2018-03-12T21:12:39.414Z,94085.42
2018-03-12T21:15:09.378Z,94080.95
2018-03-12T21:17:37.890Z,94091.48
2018-03-12T21:20:06.415Z,94092.36
2018-03-12T21:22:34.927Z,94092.73
2018-03-12T21:25:03.476Z,94089.24
2018-03-12T21:27:33.114Z,94087.73
2018-03-12T21:30:01.635Z,94087.50
2018-03-12T21:32:30.369Z,94088.08
2018-03-12T21:34:58.882Z,94092.75
2018-03-12T21:37:27.759Z,94090.16
2018-03-12T21:39:56.266Z,94084.66
2018-03-12T21:42:24.981Z,94088.97
2018-03-12T21:44:53.478Z,94091.94
2018-03-12T21:47:22.123Z,94090.95
2018-03-12T21:49:50.709Z,94088.08
2018-03-12T21:52:19.401Z,94087.85
2018-03-12T21:54:47.943Z,94089.81
2018-03-12T21:57:20.227Z,94088.84
2018-03-12T21:59:48.822Z,94093.96
2018-03-12T22:02:17.361Z,94088.34
2018-03-12T22:04:45.866Z,94093.54
2018-03-12T22:07:14.458Z,94092.38
2018-03-12T22:09:42.990Z,94094.69
2018-03-12T22:12:11.551Z,94098.04
2018-03-12T22:14:40.274Z,94102.02
2018-03-12T22:17:08.875Z,94100.93
2018-03-12T22:19:37.447Z,94103.60
2018-03-12T22:22:06.096Z,94100.58
2018-03-12T22:24:34.609Z,94106.06
2018-03-12T22:27:03.184Z,94099.59
2018-03-12T22:29:31.705Z,94100.09
2018-03-12T22:32:00.249Z,94107.64
2018-03-12T22:34:28.766Z,94108.84
2018-03-12T22:36:57.304Z,94112.91
2018-03-12T22:39:25.818Z,94111.77
2018-03-12T22:41:54.393Z,94112.70
2018-03-12T22:44:22.953Z,94113.83
2018-03-12T22:46:51.510Z,94119.53
2018-03-12T22:49:20.198Z,94123.45
2018-03-12T22:51:52.801Z,94125.27
2018-03-12T22:54:21.333Z,94124.75
2018-03-12T22:56:52.983Z,94125.34
2018-03-12T22:59:21.547Z,94128.12
2018-03-12T23:01:50.056Z,94129.89
2018-03-12T23:04:18.579Z,94128.25
2018-03-12T23:06:47.166Z,94126.09
2018-03-12T23:09:15.688Z,94130.92
2018-03-12T23:11:44.207Z,94130.89
2018-03-12T23:14:12.718Z,94133.11
2018-03-12T23:16:41.976Z,94132.30
2018-03-12T23:19:10.486Z,94143.50
2018-03-12T23:21:40.981Z,94147.44
2018-03-12T23:24:09.484Z,94139.03
2018-03-12T23:26:37.999Z,94149.48
2018-03-12T23:29:06.513Z,94156.37
2018-03-12T23:31:35.039Z,94141.97
2018-03-12T23:34:03.567Z,94148.37
2018-03-12T23:36:36.221Z,94146.16
2018-03-12T23:39:04.742Z,94147.66
2018-03-12T23:41:33.263Z,94155.36
2018-03-12T23:44:01.795Z,94150.51
2018-03-12T23:46:30.307Z,94156.59
2018-03-12T23:48:58.826Z,94173.44
2018-03-12T23:51:27.334Z,94166.17
2018-03-12T23:53:55.856Z,94169.20
2018-03-12T23:56:24.378Z,94175.38
2018-03-12T23:58:52.895Z,94171.94
